Time;durP1;ratioP1;P1;durP2;ratioP2;P2;SDS_P1;SDS_P2;PMS_P1;PMS_P2;Temp;Humidity;BMP_temperature;BMP_pressure;BME280_temperature;BME280_humidity;BME280_pressure;Samples;Min_cycle;Max_cycle;Signal;HPM_P1;HPM_P2
2021/11/02 00:00:05;;;;;;;4.07;3.20;;;11.30;99.90;;;;;;5025631;28;20277;-72
2021/11/02 00:02:31;;;;;;;3.20;2.97;;;11.30;99.90;;;;;;5025812;28;20491;-72
2021/11/02 00:05:00;;;;;;;3.73;3.30;;;11.20;99.90;;;;;;5025605;28;20618;-72
2021/11/02 00:07:28;;;;;;;4.67;3.07;;;11.30;99.90;;;;;;5025820;28;20204;-72
2021/11/02 00:10:01;;;;;;;6.33;3.10;;;11.20;99.90;;;;;;5025821;28;20229;-74
2021/11/02 00:12:28;;;;;;;3.90;3.33;;;11.20;99.90;;;;;;5025284;28;21028;-74
2021/11/02 00:14:54;;;;;;;3.20;3.00;;;11.20;99.90;;;;;;5025517;28;20654;-74
2021/11/02 00:17:23;;;;;;;3.10;2.80;;;11.20;99.90;;;;;;5025744;28;20266;-73
2021/11/02 00:19:53;;;;;;;3.80;3.20;;;11.20;99.90;;;;;;5025638;28;20209;-73
2021/11/02 00:22:21;;;;;;;3.37;3.07;;;11.20;99.90;;;;;;5025198;28;20221;-73
2021/11/02 00:25:08;;;;;;;3.60;3.00;;;11.30;99.90;;;;;;5025435;28;20219;-73
2021/11/02 00:27:36;;;;;;;3.30;3.00;;;11.20;99.90;;;;;;5025395;28;20227;-73
2021/11/02 00:30:06;;;;;;;3.23;3.03;;;11.20;99.90;;;;;;5025284;28;20253;-73
2021/11/02 00:32:33;;;;;;;3.30;2.70;;;11.20;99.90;;;;;;5025358;28;20574;-73
2021/11/02 00:35:05;;;;;;;3.43;3.13;;;11.20;99.90;;;;;;5025530;28;20229;-73
2021/11/02 00:37:32;;;;;;;3.10;2.80;;;11.20;99.90;;;;;;5025608;28;20212;-73
2021/11/02 00:40:02;;;;;;;4.60;3.40;;;11.20;99.90;;;;;;5040878;28;20710;-73
2021/11/02 00:42:37;;;;;;;3.87;3.47;;;11.20;99.90;;;;;;5026316;28;20229;-73
2021/11/02 00:45:04;;;;;;;4.17;3.17;;;11.20;99.90;;;;;;5033366;28;20239;-73
2021/11/02 00:47:32;;;;;;;4.77;3.30;;;11.20;99.90;;;;;;5045043;28;20215;-72
2021/11/02 00:50:01;;;;;;;3.53;3.23;;;11.20;99.90;;;;;;5045306;28;20212;-73
2021/11/02 00:52:29;;;;;;;4.07;3.30;;;11.20;99.90;;;;;;5028439;27;20257;-73
2021/11/02 00:54:56;;;;;;;3.53;3.17;;;11.20;99.90;;;;;;5024958;28;20660;-73
2021/11/02 00:57:28;;;;;;;3.37;2.97;;;11.20;99.90;;;;;;5025227;28;20223;-72
2021/11/02 00:59:55;;;;;;;3.63;3.17;;;11.20;99.90;;;;;;5024605;28;20271;-73
2021/11/02 01:02:23;;;;;;;3.67;3.10;;;11.20;99.90;;;;;;5025164;28;20237;-73
2021/11/02 01:04:50;;;;;;;4.33;3.40;;;11.20;99.90;;;;;;5028961;28;20212;-73
2021/11/02 01:07:17;;;;;;;3.60;3.13;;;11.20;99.90;;;;;;5044880;28;20216;-73
2021/11/02 01:09:44;;;;;;;3.23;2.93;;;11.20;99.90;;;;;;5044179;28;20657;-73
2021/11/02 01:12:13;;;;;;;4.50;2.97;;;11.10;99.90;;;;;;5045083;28;20212;-73
2021/11/02 01:14:42;;;;;;;5.23;2.97;;;11.20;99.90;;;;;;5044575;28;20665;-73
2021/11/02 01:17:10;;;;;;;2.83;2.57;;;11.20;99.90;;;;;;5045020;28;20253;-73
2021/11/02 01:19:36;;;;;;;4.10;3.20;;;11.20;99.90;;;;;;5044636;28;20219;-73
2021/11/02 01:22:03;;;;;;;5.30;3.03;;;11.20;99.90;;;;;;5044871;28;20280;-73
2021/11/02 01:24:31;;;;;;;4.03;2.90;;;11.10;99.90;;;;;;5044680;28;20654;-74
2021/11/02 01:26:58;;;;;;;4.27;3.10;;;11.10;99.90;;;;;;5044421;28;20592;-73
2021/11/02 01:29:27;;;;;;;3.03;2.83;;;11.10;99.90;;;;;;5044595;28;20207;-73
2021/11/02 01:31:55;;;;;;;3.93;2.80;;;11.10;99.90;;;;;;5045067;28;20657;-73
2021/11/02 01:34:22;;;;;;;3.53;3.20;;;11.10;99.90;;;;;;5048310;28;20228;-73
2021/11/02 01:36:50;;;;;;;5.37;3.03;;;11.10;99.90;;;;;;5047875;28;20208;-73
2021/11/02 01:39:17;;;;;;;4.67;3.50;;;11.10;99.90;;;;;;5047976;28;20251;-73
2021/11/02 01:41:43;;;;;;;4.07;3.37;;;11.10;99.90;;;;;;5047659;28;20237;-73
2021/11/02 01:44:10;;;;;;;3.23;2.93;;;11.10;99.90;;;;;;5047918;28;20204;-73
2021/11/02 01:46:40;;;;;;;5.93;3.53;;;11.10;99.90;;;;;;5047138;28;20731;-73
2021/11/02 01:49:09;;;;;;;3.20;2.80;;;11.00;99.90;;;;;;5048180;28;20204;-73
2021/11/02 01:51:39;;;;;;;4.17;3.20;;;11.00;99.90;;;;;;5047704;28;20216;-73
2021/11/02 01:54:07;;;;;;;3.23;3.00;;;11.00;99.90;;;;;;5047842;28;20781;-73
2021/11/02 01:56:35;;;;;;;4.50;3.17;;;11.00;99.90;;;;;;5047744;28;20213;-73
2021/11/02 01:59:02;;;;;;;3.53;3.10;;;11.10;99.90;;;;;;5047511;28;20236;-74
2021/11/02 02:01:34;;;;;;;3.87;3.10;;;11.00;99.90;;;;;;5047673;28;20322;-73
2021/11/02 02:04:12;;;;;;;3.93;3.13;;;11.00;99.90;;;;;;5047671;28;20197;-74
2021/11/02 02:06:44;;;;;;;3.93;3.20;;;11.00;99.90;;;;;;5047670;28;20206;-74
2021/11/02 02:09:18;;;;;;;5.10;3.60;;;11.00;99.90;;;;;;5047555;27;20235;-73
2021/11/02 02:11:55;;;;;;;3.10;2.90;;;11.00;99.90;;;;;;5047111;28;20204;-73
2021/11/02 02:14:33;;;;;;;4.73;2.97;;;11.00;99.90;;;;;;5046949;28;20737;-72
2021/11/02 02:17:02;;;;;;;3.97;3.03;;;11.00;99.90;;;;;;5047387;28;20203;-75
2021/11/02 02:19:45;;;;;;;4.20;3.23;;;11.00;99.90;;;;;;5047530;28;20212;-75
2021/11/02 02:22:35;;;;;;;5.23;3.00;;;10.90;99.90;;;;;;5046860;28;20742;-72
2021/11/02 02:25:30;;;;;;;3.87;3.30;;;10.90;99.90;;;;;;5050736;27;20200;-74
2021/11/02 02:28:07;;;;;;;3.93;3.30;;;10.90;99.90;;;;;;5047474;27;20303;-74
2021/11/02 02:30:38;;;;;;;7.53;3.03;;;10.90;99.90;;;;;;5047420;28;20751;-74
2021/11/02 02:33:06;;;;;;;3.53;3.20;;;10.90;99.90;;;;;;5047359;28;20245;-73
2021/11/02 02:35:33;;;;;;;3.40;3.10;;;10.90;99.90;;;;;;5047174;28;20281;-73
2021/11/02 02:38:01;;;;;;;5.83;3.53;;;10.90;99.90;;;;;;5047070;28;20215;-74
2021/11/02 02:40:29;;;;;;;3.50;3.20;;;10.90;99.90;;;;;;5047342;28;20231;-74
2021/11/02 02:42:58;;;;;;;3.80;3.27;;;10.90;99.90;;;;;;5046593;27;20231;-73
2021/11/02 02:45:27;;;;;;;4.80;3.80;;;10.90;99.90;;;;;;5046383;28;20207;-74
2021/11/02 02:47:54;;;;;;;3.97;3.50;;;10.90;99.90;;;;;;5046549;28;20566;-73
2021/11/02 02:50:22;;;;;;;3.80;3.40;;;10.90;99.90;;;;;;5046908;28;20232;-74
2021/11/02 02:52:51;;;;;;;3.60;3.30;;;10.90;99.90;;;;;;5046454;27;20224;-73
2021/11/02 02:55:18;;;;;;;3.70;3.40;;;10.90;99.90;;;;;;5046509;28;20248;-73
2021/11/02 02:57:46;;;;;;;5.37;3.90;;;10.90;99.90;;;;;;5046364;28;20200;-74
2021/11/02 03:00:14;;;;;;;7.87;4.10;;;10.90;99.90;;;;;;5046426;28;20329;-73
2021/11/02 03:02:44;;;;;;;8.87;4.00;;;10.90;99.90;;;;;;5046299;28;20231;-73
2021/11/02 03:05:13;;;;;;;3.77;3.43;;;10.90;99.90;;;;;;5046697;28;20235;-73
2021/11/02 03:07:43;;;;;;;4.00;3.60;;;10.90;99.90;;;;;;5046359;28;20231;-73
2021/11/02 03:10:13;;;;;;;4.03;3.53;;;10.90;99.90;;;;;;5046374;28;20238;-72
2021/11/02 03:12:44;;;;;;;5.67;3.93;;;10.90;99.90;;;;;;5046469;28;20231;-72
2021/11/02 03:15:38;;;;;;;5.50;4.03;;;10.90;99.90;;;;;;5046315;28;20559;-72
2021/11/02 03:18:18;;;;;;;7.53;4.07;;;10.90;99.90;;;;;;5046581;28;20200;-72
2021/11/02 03:48:45;;;;;;;6.03;4.23;;;10.80;99.90;;;;;;5022655;28;20203;-73
2021/11/02 03:51:19;;;;;;;5.87;4.73;;;10.90;99.90;;;;;;5023017;28;20776;-74
2021/11/02 03:56:56;;;;;;;6.90;5.70;;;10.90;99.90;;;;;;5030455;27;20250;-73
2021/11/02 04:00:03;;;;;;;4.83;4.43;;;10.90;99.90;;;;;;5042367;27;20236;-73
2021/11/02 04:28:00;;;;;;;6.00;5.50;;;10.80;99.90;;;;;;5024885;28;20270;-72
2021/11/02 04:33:41;;;;;;;7.73;5.77;;;10.80;99.90;;;;;;5024754;28;20278;-73
2021/11/02 05:07:36;;;;;;;6.43;5.90;;;10.70;99.90;;;;;;5026269;28;20327;-73
2021/11/02 05:10:41;;;;;;;9.23;6.20;;;10.70;99.90;;;;;;5028382;28;20260;-73
2021/11/02 05:13:35;;;;;;;7.70;5.50;;;10.70;99.90;;;;;;5028537;28;20230;-73
2021/11/02 05:46:47;;;;;;;7.47;6.77;;;10.60;99.90;;;;;;5027764;28;20196;-73
2021/11/02 05:49:25;;;;;;;10.00;6.63;;;10.70;99.90;;;;;;5027780;28;20292;-73
2021/11/02 05:57:45;;;;;;;7.80;6.30;;;10.60;99.90;;;;;;5027587;28;20185;-73
2021/11/02 06:00:16;;;;;;;7.77;6.60;;;10.70;99.90;;;;;;5027443;28;20244;-73
2021/11/02 06:03:04;;;;;;;8.10;7.30;;;10.60;99.90;;;;;;5027587;28;20224;-73
2021/11/02 06:08:52;;;;;;;7.93;6.80;;;10.60;99.90;;;;;;5016382;28;20258;-73
2021/11/02 06:28:18;;;;;;;8.87;7.97;;;10.60;99.90;;;;;;5046702;28;20603;-73
2021/11/02 06:30:52;;;;;;;9.83;8.83;;;10.60;99.90;;;;;;5046477;28;20236;-73
2021/11/02 06:33:32;;;;;;;9.43;8.47;;;10.60;99.90;;;;;;5046667;28;20783;-73
2021/11/02 06:36:11;;;;;;;8.97;8.17;;;10.60;99.90;;;;;;5046564;28;20730;-73
2021/11/02 06:39:15;;;;;;;10.07;8.53;;;10.60;99.90;;;;;;5046943;28;20196;-73
2021/11/02 06:50:44;;;;;;;10.63;9.53;;;10.60;99.90;;;;;;5037184;27;20773;-73
2021/11/02 06:53:30;;;;;;;10.73;9.63;;;10.60;99.90;;;;;;5046493;28;20228;-73
2021/11/02 06:56:37;;;;;;;10.80;9.70;;;10.60;99.90;;;;;;5046414;28;20591;-74
2021/11/02 06:59:28;;;;;;;14.63;9.80;;;10.60;99.90;;;;;;5046163;28;20235;-73
2021/11/02 07:16:41;;;;;;;12.93;11.00;;;10.60;99.90;;;;;;5046035;28;20192;-73
2021/11/02 07:19:13;;;;;;;14.00;11.40;;;10.60;99.90;;;;;;5046299;28;20213;-73
2021/11/02 07:21:54;;;;;;;13.00;10.83;;;10.60;99.90;;;;;;5046660;28;20212;-73
2021/11/02 07:24:34;;;;;;;13.27;11.63;;;10.60;99.90;;;;;;5046056;28;20690;-73
2021/11/02 07:27:17;;;;;;;14.13;12.13;;;10.60;99.90;;;;;;5046246;28;20233;-73
2021/11/02 08:46:43;;;;;;;11.00;9.03;;;10.00;99.90;;;;;;5048357;28;20650;-73
2021/11/02 08:49:10;;;;;;;9.87;8.97;;;10.20;99.90;;;;;;5048845;28;20202;-73
2021/11/02 08:51:46;;;;;;;11.70;9.23;;;10.20;99.90;;;;;;5048160;28;20228;-73
2021/11/02 08:54:17;;;;;;;10.43;9.00;;;10.30;99.90;;;;;;5048811;28;20223;-73
2021/11/02 08:56:44;;;;;;;9.63;8.50;;;10.20;99.90;;;;;;5048568;27;20241;-73
2021/11/02 08:59:11;;;;;;;10.67;8.40;;;10.30;99.90;;;;;;5048084;28;20766;-73
2021/11/02 09:01:42;;;;;;;11.20;8.23;;;10.40;99.90;;;;;;5047985;28;20666;-73
2021/11/02 09:04:33;;;;;;;10.17;8.37;;;10.50;99.90;;;;;;5048507;28;20227;-73
2021/11/02 09:07:16;;;;;;;8.93;8.23;;;10.60;99.90;;;;;;5048500;27;20280;-73
2021/11/02 09:09:48;;;;;;;8.30;7.50;;;10.50;99.90;;;;;;5048228;28;20192;-73
2021/11/02 09:12:26;;;;;;;10.80;8.10;;;10.50;99.90;;;;;;5048428;28;20197;-73
2021/11/02 09:15:14;;;;;;;9.83;8.20;;;10.50;99.90;;;;;;5048095;28;20203;-74
2021/11/02 09:18:09;;;;;;;8.50;7.70;;;10.50;99.90;;;;;;5047999;28;20252;-73
2021/11/02 09:20:41;;;;;;;8.90;8.00;;;10.60;99.90;;;;;;5042650;28;20228;-73
2021/11/02 09:23:11;;;;;;;9.07;8.10;;;10.40;99.90;;;;;;5048016;28;20263;-73
2021/11/02 09:25:40;;;;;;;8.80;7.80;;;10.40;99.90;;;;;;5047890;27;20196;-73
2021/11/02 09:28:12;;;;;;;10.33;7.70;;;10.50;99.90;;;;;;5047983;28;20272;-73
2021/11/02 09:30:39;;;;;;;8.37;7.60;;;10.50;99.90;;;;;;5047750;28;20224;-73
2021/11/02 09:33:09;;;;;;;9.10;8.03;;;10.60;99.90;;;;;;5047949;28;20239;-73
2021/11/02 09:35:40;;;;;;;8.63;7.93;;;10.70;99.90;;;;;;5047810;28;20228;-73
2021/11/02 09:38:25;;;;;;;8.40;7.53;;;10.80;99.90;;;;;;5047817;28;20273;-73
2021/11/02 09:41:40;;;;;;;8.50;7.57;;;10.80;99.90;;;;;;5048170;28;20216;-73
2021/11/02 09:44:53;;;;;;;9.23;8.30;;;10.90;99.90;;;;;;5047585;28;20593;-73
2021/11/02 09:47:52;;;;;;;12.17;8.30;;;10.90;99.90;;;;;;5048512;27;20573;-73
2021/11/02 09:51:03;;;;;;;8.83;8.03;;;10.70;99.90;;;;;;5047835;28;20275;-73
2021/11/02 09:54:31;;;;;;;9.20;7.83;;;10.70;99.90;;;;;;5088245;28;20790;-73
2021/11/02 09:57:40;;;;;;;10.00;9.00;;;10.90;99.90;;;;;;5088012;28;20198;-73
2021/11/02 10:00:37;;;;;;;10.93;8.90;;;10.90;99.90;;;;;;5087208;28;20770;-73
2021/11/02 10:07:07;;;;;;;8.10;7.40;;;11.10;99.90;;;;;;5042138;27;20406;-73
2021/11/02 10:09:53;;;;;;;8.70;7.83;;;11.30;99.90;;;;;;5050305;27;20240;-73
2021/11/02 10:12:30;;;;;;;10.67;7.97;;;11.30;99.90;;;;;;5046918;28;20213;-73
2021/11/02 10:15:09;;;;;;;9.00;7.80;;;11.30;99.90;;;;;;5047223;28;20203;-73
2021/11/02 10:18:19;;;;;;;9.53;8.33;;;11.40;99.90;;;;;;5047104;28;20207;-73
2021/11/02 10:21:30;;;;;;;9.73;8.40;;;11.40;99.90;;;;;;5046845;28;20225;-73
2021/11/02 10:24:27;;;;;;;8.20;7.50;;;11.50;99.90;;;;;;5046646;28;20709;-73
2021/11/02 10:27:20;;;;;;;8.60;7.77;;;11.50;99.90;;;;;;5047147;28;20207;-73
2021/11/02 10:30:14;;;;;;;8.80;7.60;;;11.50;99.90;;;;;;5046724;28;20232;-73
2021/11/02 10:32:45;;;;;;;10.47;7.90;;;11.50;99.90;;;;;;5046709;27;20236;-73
2021/11/02 10:35:21;;;;;;;10.40;7.73;;;11.60;99.90;;;;;;5047086;28;20200;-73
2021/11/02 10:38:03;;;;;;;8.73;7.93;;;11.60;99.90;;;;;;5046988;28;20199;-73
2021/11/02 10:40:38;;;;;;;11.23;7.77;;;11.70;99.90;;;;;;5047260;27;20196;-73
2021/11/02 10:43:42;;;;;;;10.70;8.03;;;11.70;99.90;;;;;;5045733;27;20298;-73
2021/11/02 10:46:34;;;;;;;8.30;7.33;;;11.70;99.90;;;;;;5046308;28;20200;-73
2021/11/02 10:49:10;;;;;;;10.90;7.87;;;11.70;99.90;;;;;;5046676;27;20197;-74
2021/11/02 10:52:03;;;;;;;7.90;7.20;;;11.70;99.90;;;;;;5046400;28;20232;-73
2021/11/02 10:54:53;;;;;;;9.43;8.40;;;11.70;99.90;;;;;;5046978;28;20216;-73
2021/11/02 10:57:51;;;;;;;8.67;7.87;;;11.70;99.90;;;;;;5046665;28;20239;-73
2021/11/02 11:00:28;;;;;;;9.03;8.10;;;11.70;99.90;;;;;;5046063;28;20802;-74
2021/11/02 11:02:56;;;;;;;10.03;8.33;;;11.80;99.90;;;;;;5046522;28;20253;-73
2021/11/02 11:05:26;;;;;;;8.63;7.67;;;11.80;99.90;;;;;;5045711;28;20300;-73
2021/11/02 11:07:57;;;;;;;8.17;7.43;;;11.90;99.90;;;;;;5046651;28;20224;-73
2021/11/02 11:10:44;;;;;;;9.73;8.73;;;11.90;99.90;;;;;;5046447;28;20324;-73
2021/11/02 11:13:28;;;;;;;8.37;7.50;;;11.80;99.90;;;;;;5046290;28;20578;-73
2021/11/02 11:16:07;;;;;;;8.23;7.53;;;11.90;99.90;;;;;;5046287;28;20282;-73
2021/11/02 11:18:52;;;;;;;10.23;7.70;;;12.00;99.90;;;;;;5046240;28;20193;-73
2021/11/02 11:21:24;;;;;;;10.57;8.60;;;12.00;99.90;;;;;;5046151;28;20292;-73
2021/11/02 11:23:57;;;;;;;7.57;6.33;;;12.00;99.90;;;;;;5045806;27;20224;-74
2021/11/02 11:26:27;;;;;;;11.20;6.93;;;11.80;99.90;;;;;;5046489;28;20216;-73
2021/11/02 11:28:55;;;;;;;9.53;6.53;;;11.70;99.90;;;;;;5045648;28;20710;-73
2021/11/02 11:31:26;;;;;;;9.23;6.40;;;11.60;99.90;;;;;;5045916;28;20611;-73
2021/11/02 11:34:29;;;;;;;8.97;6.43;;;11.50;99.90;;;;;;5046332;28;20212;-73
2021/11/02 11:37:00;;;;;;;8.80;5.93;;;11.50;99.90;;;;;;5044636;27;20641;-73
2021/11/02 11:39:36;;;;;;;8.77;6.63;;;11.60;99.90;;;;;;5046321;28;20228;-73
2021/11/02 11:42:15;;;;;;;8.17;6.50;;;11.50;99.90;;;;;;5046024;28;20202;-73
2021/11/02 11:44:49;;;;;;;7.33;6.00;;;11.50;99.90;;;;;;5045965;28;20230;-73
2021/11/02 11:47:24;;;;;;;8.13;6.23;;;11.60;99.90;;;;;;5045999;27;20203;-73
2021/11/02 11:49:55;;;;;;;10.80;6.90;;;11.70;99.90;;;;;;5045549;28;20637;-73
2021/11/02 11:52:24;;;;;;;9.70;6.23;;;11.70;99.90;;;;;;5045699;28;20315;-73
2021/11/02 11:55:04;;;;;;;8.17;6.50;;;11.70;99.90;;;;;;5045540;28;20268;-73
2021/11/02 11:57:40;;;;;;;8.50;6.80;;;11.90;99.90;;;;;;5045801;28;20199;-73
2021/11/02 12:00:09;;;;;;;6.57;5.87;;;12.20;99.90;;;;;;5045406;28;20375;-73
2021/11/02 12:02:43;;;;;;;7.40;5.50;;;12.60;99.90;;;;;;5045463;28;20268;-73
2021/11/02 12:05:21;;;;;;;6.37;5.67;;;12.90;99.90;;;;;;5045432;28;20228;-73
2021/11/02 12:08:04;;;;;;;7.50;5.90;;;13.20;99.90;;;;;;5045399;28;20231;-73
2021/11/02 12:11:00;;;;;;;6.77;6.10;;;13.20;99.90;;;;;;5045725;28;20296;-73
2021/11/02 12:13:44;;;;;;;6.67;5.97;;;13.20;99.90;;;;;;5043713;27;20220;-73
2021/11/02 12:16:42;;;;;;;5.87;5.10;;;13.30;99.90;;;;;;5044486;27;20196;-73
2021/11/02 12:19:19;;;;;;;5.80;5.30;;;13.30;99.90;;;;;;5045105;28;20631;-73
2021/11/02 12:22:04;;;;;;;9.23;5.97;;;13.20;99.90;;;;;;5044735;28;20196;-73
2021/11/02 12:24:34;;;;;;;6.37;5.73;;;13.20;99.90;;;;;;5044966;28;20257;-73
2021/11/02 12:27:16;;;;;;;7.27;5.50;;;13.50;99.90;;;;;;5045466;28;20194;-73
2021/11/02 12:29:47;;;;;;;6.77;5.10;;;13.80;99.90;;;;;;5045166;28;20232;-73
2021/11/02 12:32:20;;;;;;;6.80;5.03;;;14.10;99.90;;;;;;5045338;28;20619;-73
2021/11/02 12:35:05;;;;;;;6.80;5.00;;;14.10;99.90;;;;;;5045609;28;20248;-73
2021/11/02 12:37:32;;;;;;;6.43;4.60;;;14.10;99.90;;;;;;5046704;28;20287;-73
2021/11/02 12:40:15;;;;;;;6.60;4.53;;;14.10;99.90;;;;;;5045341;28;20200;-73
2021/11/02 12:42:43;;;;;;;7.70;4.90;;;13.70;99.90;;;;;;5045282;28;20588;-73
2021/11/02 12:45:11;;;;;;;6.70;4.43;;;13.60;99.90;;;;;;5044997;28;20239;-73
2021/11/02 12:47:39;;;;;;;6.73;4.67;;;13.60;99.90;;;;;;5044983;28;20208;-73
2021/11/02 12:50:07;;;;;;;7.17;4.67;;;13.60;99.90;;;;;;5045115;28;20212;-73
2021/11/02 12:52:36;;;;;;;6.20;5.10;;;13.70;99.90;;;;;;5045132;28;20201;-73
2021/11/02 12:55:06;;;;;;;6.27;4.87;;;13.70;99.90;;;;;;5045263;28;20216;-73
2021/11/02 12:57:37;;;;;;;5.57;4.73;;;13.50;99.90;;;;;;5044936;28;20284;-73
2021/11/02 13:00:08;;;;;;;6.00;4.87;;;13.50;99.90;;;;;;5044665;28;20730;-73
2021/11/02 13:02:37;;;;;;;7.80;4.17;;;13.60;99.90;;;;;;5044886;28;20245;-73
2021/11/02 13:05:06;;;;;;;5.77;4.10;;;13.70;99.90;;;;;;5044858;28;20239;-73
2021/11/02 13:07:39;;;;;;;5.40;4.60;;;13.80;99.90;;;;;;5044722;28;20224;-73
2021/11/02 13:10:16;;;;;;;4.97;3.80;;;13.90;99.90;;;;;;5045013;28;20209;-73
2021/11/02 13:12:45;;;;;;;4.60;4.00;;;13.60;99.90;;;;;;5044925;28;20196;-73
2021/11/02 13:15:12;;;;;;;4.93;4.13;;;13.60;99.90;;;;;;5044597;28;20738;-73
2021/11/02 13:17:45;;;;;;;5.20;4.17;;;13.60;99.90;;;;;;5044645;28;20240;-73
2021/11/02 13:20:14;;;;;;;6.90;3.90;;;13.60;99.90;;;;;;5044342;28;20197;-73
2021/11/02 13:22:51;;;;;;;4.07;3.67;;;13.60;99.90;;;;;;5044533;28;20208;-73
2021/11/02 13:25:23;;;;;;;5.27;3.37;;;13.50;99.90;;;;;;5044230;28;20768;-73
2021/11/02 13:27:53;;;;;;;3.73;3.43;;;13.40;99.90;;;;;;5045291;28;20196;-73
2021/11/02 13:30:29;;;;;;;3.90;3.10;;;13.50;99.90;;;;;;5047562;27;20781;-73
2021/11/02 13:33:09;;;;;;;3.83;3.10;;;13.40;99.90;;;;;;5047756;28;20280;-73
2021/11/02 13:35:57;;;;;;;5.27;3.60;;;13.40;99.90;;;;;;5047925;28;20192;-73
2021/11/02 13:38:30;;;;;;;7.03;4.10;;;13.30;99.90;;;;;;5047667;28;20257;-73
2021/11/02 13:40:59;;;;;;;4.53;4.00;;;13.20;99.90;;;;;;5047913;28;20196;-73
2021/11/02 13:43:29;;;;;;;5.23;4.00;;;13.10;99.90;;;;;;5047796;28;20209;-73
2021/11/02 13:45:56;;;;;;;4.63;3.90;;;13.00;99.90;;;;;;5047632;28;20236;-73
2021/11/02 13:48:26;;;;;;;6.57;3.80;;;13.00;99.90;;;;;;5047953;28;20219;-73
2021/11/02 13:50:53;;;;;;;4.57;3.90;;;13.10;99.90;;;;;;5047603;28;20232;-73
2021/11/02 13:53:20;;;;;;;8.70;4.03;;;13.10;99.90;;;;;;5047825;28;20220;-73
2021/11/02 13:55:46;;;;;;;5.77;4.93;;;13.10;99.90;;;;;;5047499;28;20243;-73
2021/11/02 13:58:14;;;;;;;8.00;5.03;;;13.10;99.90;;;;;;5047752;28;20215;-73
2021/11/02 14:00:41;;;;;;;3.97;3.57;;;13.10;99.90;;;;;;5047042;28;20239;-73
2021/11/02 14:03:12;;;;;;;5.33;3.30;;;13.10;99.90;;;;;;5042401;27;20241;-73
2021/11/02 14:05:42;;;;;;;3.47;3.13;;;13.10;99.90;;;;;;5047242;28;20224;-79
2021/11/02 14:08:09;;;;;;;6.87;3.73;;;13.10;99.90;;;;;;5038363;28;20348;-79
2021/11/02 14:10:36;;;;;;;3.30;3.00;;;13.10;99.90;;;;;;5040282;28;20657;-79
2021/11/02 14:13:03;;;;;;;4.03;2.73;;;13.00;99.90;;;;;;5047606;28;20205;-73
2021/11/02 14:15:30;;;;;;;6.63;3.20;;;13.00;99.90;;;;;;5043895;28;20307;-73
2021/11/02 14:18:09;;;;;;;6.53;3.53;;;13.00;99.90;;;;;;5044333;28;20208;-73
2021/11/02 14:20:40;;;;;;;5.60;3.13;;;13.00;99.90;;;;;;5043475;28;20216;-72
2021/11/02 14:23:08;;;;;;;5.80;3.20;;;13.10;99.90;;;;;;5044457;28;20230;-73
2021/11/02 14:25:38;;;;;;;4.77;3.30;;;13.10;99.90;;;;;;5044287;28;20232;-72
2021/11/02 14:28:05;;;;;;;8.37;3.40;;;13.20;99.90;;;;;;5044195;28;20266;-72
2021/11/02 14:30:40;;;;;;;3.57;2.80;;;13.20;99.90;;;;;;5043614;28;20204;-72
2021/11/02 14:33:08;;;;;;;4.43;2.70;;;13.30;99.90;;;;;;5044278;28;20196;-73
2021/11/02 14:35:47;;;;;;;5.47;3.00;;;13.50;99.90;;;;;;5043988;28;20648;-73
2021/11/02 14:38:15;;;;;;;6.50;2.83;;;13.70;99.90;;;;;;5044011;28;20196;-73
2021/11/02 14:40:43;;;;;;;3.97;2.80;;;13.80;99.90;;;;;;5042897;28;20595;-73
2021/11/02 14:43:28;;;;;;;3.83;2.80;;;13.90;99.90;;;;;;5044006;28;20208;-73
2021/11/02 14:45:56;;;;;;;4.13;2.53;;;14.00;99.90;;;;;;5042742;28;20261;-73
2021/11/02 14:48:48;;;;;;;3.20;2.90;;;14.00;99.90;;;;;;5043799;28;20208;-73
2021/11/02 14:51:28;;;;;;;6.67;2.90;;;14.00;99.90;;;;;;5043489;28;20232;-73
2021/11/02 14:53:58;;;;;;;3.63;3.00;;;13.80;99.90;;;;;;5043725;28;20272;-73
2021/11/02 14:56:33;;;;;;;6.10;3.17;;;13.80;99.90;;;;;;5043979;28;20302;-73
2021/11/02 14:59:02;;;;;;;3.37;2.50;;;13.70;99.90;;;;;;5043533;28;20203;-73
2021/11/02 15:02:02;;;;;;;3.33;2.40;;;13.60;99.90;;;;;;5043530;28;20205;-73
2021/11/02 15:04:30;;;;;;;3.63;2.20;;;13.40;99.90;;;;;;5044571;27;20200;-73
2021/11/02 15:07:02;;;;;;;3.03;2.53;;;13.30;99.90;;;;;;5043092;28;20789;-73
2021/11/02 15:09:31;;;;;;;6.60;3.07;;;13.10;99.90;;;;;;5043745;28;20201;-73
2021/11/02 15:11:58;;;;;;;4.87;2.70;;;13.00;99.90;;;;;;5043439;28;20273;-74
2021/11/02 15:14:28;;;;;;;6.40;2.67;;;12.90;99.90;;;;;;5043147;28;20209;-74
2021/11/02 15:16:56;;;;;;;6.20;2.60;;;12.80;99.90;;;;;;5025050;28;20240;-73
2021/11/02 15:19:25;;;;;;;8.03;3.17;;;12.80;99.90;;;;;;5026508;28;20621;-72
2021/11/02 15:21:55;;;;;;;6.47;3.23;;;12.80;99.90;;;;;;5032182;27;20212;-72
2021/11/02 15:24:26;;;;;;;5.67;3.20;;;12.70;99.90;;;;;;5038649;28;20240;-72
2021/11/02 15:26:55;;;;;;;3.43;2.50;;;12.70;99.90;;;;;;5041469;28;20265;-71
2021/11/02 15:29:23;;;;;;;5.57;2.90;;;12.70;99.90;;;;;;5041765;27;20223;-72
2021/11/02 15:32:07;;;;;;;6.47;2.83;;;12.70;99.90;;;;;;5041016;28;20284;-72
2021/11/02 15:34:46;;;;;;;11.97;8.00;;;12.70;99.90;;;;;;5042598;28;20188;-72
2021/11/02 15:37:15;;;;;;;13.03;8.30;;;12.60;99.90;;;;;;5042467;28;20203;-72
2021/11/02 15:39:44;;;;;;;19.60;11.63;;;12.60;99.90;;;;;;5042691;28;20200;-72
2021/11/02 15:42:26;;;;;;;17.80;11.00;;;12.60;99.90;;;;;;5043312;27;20249;-72
2021/11/02 15:44:55;;;;;;;13.90;9.07;;;12.60;99.90;;;;;;5043343;28;20263;-72
2021/11/02 15:47:23;;;;;;;12.80;9.00;;;12.60;99.90;;;;;;5042571;28;20210;-72
2021/11/02 15:49:58;;;;;;;18.90;11.93;;;12.50;99.90;;;;;;5037674;28;20272;-71
2021/11/02 15:52:27;;;;;;;20.20;12.10;;;12.50;99.90;;;;;;5041140;28;20206;-72
2021/11/02 15:54:59;;;;;;;18.10;9.80;;;12.40;99.90;;;;;;5041504;28;20330;-72
2021/11/02 15:57:26;;;;;;;18.60;11.87;;;12.40;99.90;;;;;;5042225;28;20189;-72
2021/11/02 16:00:08;;;;;;;22.03;15.03;;;12.40;99.90;;;;;;5040637;28;20236;-72
2021/11/02 16:02:36;;;;;;;14.23;8.50;;;12.30;99.90;;;;;;5041383;28;20273;-72
2021/11/02 16:05:05;;;;;;;17.67;9.97;;;12.30;99.90;;;;;;5042347;27;20228;-72
2021/11/02 16:07:33;;;;;;;15.93;9.97;;;12.30;99.90;;;;;;5042429;28;20216;-72
2021/11/02 16:10:01;;;;;;;16.83;10.67;;;12.20;99.90;;;;;;5041105;28;20457;-72
2021/11/02 16:12:31;;;;;;;13.93;9.80;;;12.20;99.90;;;;;;5043053;28;20205;-71
2021/11/02 16:15:01;;;;;;;15.40;9.20;;;12.20;99.90;;;;;;5042921;28;20686;-71
2021/11/02 16:17:38;;;;;;;15.57;9.50;;;12.20;99.90;;;;;;5042197;28;20212;-71
2021/11/02 16:20:06;;;;;;;10.70;7.70;;;12.10;99.90;;;;;;5040989;28;20188;-74
2021/11/02 16:22:45;;;;;;;12.83;7.50;;;12.10;99.90;;;;;;5041807;28;20208;-72
2021/11/02 16:25:14;;;;;;;14.83;7.27;;;12.10;99.90;;;;;;5041703;28;20216;-73
2021/11/02 16:27:40;;;;;;;8.27;5.10;;;12.10;99.90;;;;;;5040992;28;20260;-72
2021/11/02 16:30:22;;;;;;;7.83;4.50;;;12.10;99.90;;;;;;5039533;27;20209;-72
2021/11/02 16:32:50;;;;;;;6.10;4.73;;;12.00;99.90;;;;;;5040152;28;20196;-72
2021/11/02 16:35:35;;;;;;;9.43;5.60;;;12.00;99.90;;;;;;5040909;27;20200;-73
2021/11/02 16:38:26;;;;;;;8.23;5.17;;;12.00;99.90;;;;;;5038044;28;20279;-73
2021/11/02 16:40:56;;;;;;;6.43;5.03;;;12.00;99.90;;;;;;5038453;28;20199;-72
2021/11/02 16:43:27;;;;;;;9.50;5.80;;;12.00;99.90;;;;;;5040847;28;20192;-73
2021/11/02 16:45:55;;;;;;;6.80;5.20;;;11.90;99.90;;;;;;5040424;28;20663;-74
2021/11/02 16:48:41;;;;;;;9.63;4.90;;;11.90;99.90;;;;;;5041770;27;20204;-74
2021/11/02 16:51:08;;;;;;;7.63;4.47;;;11.90;99.90;;;;;;5040298;28;20224;-74
2021/11/02 16:53:35;;;;;;;6.43;4.27;;;11.90;99.90;;;;;;5042469;27;20545;-74
2021/11/02 16:56:10;;;;;;;7.07;4.23;;;11.90;99.90;;;;;;5037595;27;20228;-73
2021/11/02 16:58:37;;;;;;;6.80;4.60;;;11.90;99.90;;;;;;5039234;28;20208;-71
2021/11/02 17:01:34;;;;;;;5.30;3.77;;;11.90;99.90;;;;;;5039320;28;20276;-71
2021/11/02 17:04:11;;;;;;;8.03;5.53;;;11.90;99.90;;;;;;5041355;28;20212;-71
2021/11/02 17:06:37;;;;;;;8.67;5.63;;;11.80;99.90;;;;;;5042956;28;20242;-72
2021/11/02 17:09:23;;;;;;;5.70;5.20;;;11.80;99.90;;;;;;5043233;28;20207;-73
2021/11/02 17:11:58;;;;;;;5.47;4.40;;;11.80;99.90;;;;;;5042370;28;20189;-72
2021/11/02 17:14:26;;;;;;;4.93;3.53;;;11.80;99.90;;;;;;5042886;28;20192;-73
2021/11/02 17:16:55;;;;;;;3.20;2.70;;;11.80;99.90;;;;;;5037401;28;20216;-73
2021/11/02 17:19:23;;;;;;;3.17;2.70;;;11.80;99.90;;;;;;5043053;28;20204;-73
2021/11/02 17:21:52;;;;;;;2.97;2.67;;;11.80;99.90;;;;;;5043411;28;20204;-72
2021/11/02 17:24:19;;;;;;;4.07;3.00;;;11.70;99.90;;;;;;5043965;28;20204;-73
2021/11/02 17:26:46;;;;;;;3.60;2.47;;;11.80;99.90;;;;;;5042026;28;20236;-73
2021/11/02 17:29:15;;;;;;;3.17;2.93;;;11.80;99.90;;;;;;5042337;28;20765;-73
2021/11/02 17:31:44;;;;;;;3.33;2.87;;;11.80;99.90;;;;;;5043164;28;20315;-72
2021/11/02 17:34:13;;;;;;;4.63;3.20;;;11.70;99.90;;;;;;5043894;28;20741;-73
2021/11/02 17:36:40;;;;;;;5.10;3.60;;;11.80;99.90;;;;;;5041530;28;20677;-73